sensor_id;sensor_type;location;lat;lon;timestamp;P1;durP1;ratioP1;P2;durP2;ratioP2
31734;SDS011;18313;48.518;9.124;2023-05-09T00:00:52;15.18;;;12.13;;
31734;SDS011;18313;48.518;9.124;2023-05-09T00:03:19;16.80;;;13.52;;
31734;SDS011;18313;48.518;9.124;2023-05-09T00:05:46;17.55;;;13.57;;
31734;SDS011;18313;48.518;9.124;2023-05-09T00:08:13;17.05;;;12.85;;
31734;SDS011;18313;48.518;9.124;2023-05-09T00:10:40;15.13;;;12.15;;
31734;SDS011;18313;48.518;9.124;2023-05-09T00:13:08;15.25;;;12.45;;
31734;SDS011;18313;48.518;9.124;2023-05-09T00:15:34;15.98;;;13.07;;
31734;SDS011;18313;48.518;9.124;2023-05-09T00:18:02;17.27;;;13.88;;
31734;SDS011;18313;48.518;9.124;2023-05-09T00:20:29;15.82;;;11.65;;
31734;SDS011;18313;48.518;9.124;2023-05-09T00:22:56;20.45;;;13.50;;
31734;SDS011;18313;48.518;9.124;2023-05-09T00:25:23;17.73;;;13.65;;
31734;SDS011;18313;48.518;9.124;2023-05-09T00:27:50;15.82;;;12.48;;
31734;SDS011;18313;48.518;9.124;2023-05-09T00:30:17;16.35;;;13.60;;
31734;SDS011;18313;48.518;9.124;2023-05-09T00:32:44;17.58;;;14.05;;
31734;SDS011;18313;48.518;9.124;2023-05-09T00:35:11;18.23;;;13.52;;
31734;SDS011;18313;48.518;9.124;2023-05-09T00:37:38;17.40;;;12.65;;
31734;SDS011;18313;48.518;9.124;2023-05-09T00:40:06;16.33;;;12.70;;
31734;SDS011;18313;48.518;9.124;2023-05-09T00:42:34;18.55;;;12.93;;
31734;SDS011;18313;48.518;9.124;2023-05-09T00:45:02;14.18;;;11.48;;
31734;SDS011;18313;48.518;9.124;2023-05-09T00:47:29;11.65;;;9.02;;
31734;SDS011;18313;48.518;9.124;2023-05-09T00:49:56;10.75;;;8.88;;
31734;SDS011;18313;48.518;9.124;2023-05-09T00:52:24;13.15;;;9.80;;
31734;SDS011;18313;48.518;9.124;2023-05-09T00:54:51;10.75;;;8.70;;
31734;SDS011;18313;48.518;9.124;2023-05-09T00:57:20;11.55;;;8.65;;
31734;SDS011;18313;48.518;9.124;2023-05-09T00:59:47;12.70;;;9.98;;
31734;SDS011;18313;48.518;9.124;2023-05-09T01:02:18;10.18;;;8.35;;
31734;SDS011;18313;48.518;9.124;2023-05-09T01:04:46;11.05;;;8.88;;
31734;SDS011;18313;48.518;9.124;2023-05-09T01:07:31;10.75;;;8.60;;
31734;SDS011;18313;48.518;9.124;2023-05-09T01:13:29;7.15;;;5.70;;
31734;SDS011;18313;48.518;9.124;2023-05-09T01:15:40;6.85;;;5.85;;
31734;SDS011;18313;48.518;9.124;2023-05-09T01:18:20;6.63;;;5.47;;
31734;SDS011;18313;48.518;9.124;2023-05-09T01:21:04;9.88;;;5.10;;
31734;SDS011;18313;48.518;9.124;2023-05-09T01:23:48;5.50;;;4.82;;
31734;SDS011;18313;48.518;9.124;2023-05-09T01:29:44;6.95;;;6.15;;
31734;SDS011;18313;48.518;9.124;2023-05-09T01:32:18;7.10;;;6.10;;
31734;SDS011;18313;48.518;9.124;2023-05-09T01:34:48;7.25;;;6.55;;
31734;SDS011;18313;48.518;9.124;2023-05-09T01:37:21;8.77;;;7.75;;
31734;SDS011;18313;48.518;9.124;2023-05-09T01:39:52;15.05;;;7.97;;
31734;SDS011;18313;48.518;9.124;2023-05-09T01:42:23;8.93;;;7.97;;
31734;SDS011;18313;48.518;9.124;2023-05-09T01:44:53;8.02;;;7.22;;
31734;SDS011;18313;48.518;9.124;2023-05-09T01:47:21;8.48;;;7.57;;
31734;SDS011;18313;48.518;9.124;2023-05-09T01:49:49;9.55;;;7.93;;
31734;SDS011;18313;48.518;9.124;2023-05-09T01:52:18;7.97;;;7.18;;
31734;SDS011;18313;48.518;9.124;2023-05-09T01:54:45;7.10;;;6.40;;
31734;SDS011;18313;48.518;9.124;2023-05-09T01:57:14;6.45;;;5.72;;
31734;SDS011;18313;48.518;9.124;2023-05-09T01:59:44;6.10;;;5.50;;
31734;SDS011;18313;48.518;9.124;2023-05-09T02:02:12;6.55;;;5.60;;
31734;SDS011;18313;48.518;9.124;2023-05-09T02:04:40;6.72;;;5.93;;
31734;SDS011;18313;48.518;9.124;2023-05-09T02:07:08;7.65;;;6.20;;
31734;SDS011;18313;48.518;9.124;2023-05-09T02:09:36;6.18;;;5.45;;
31734;SDS011;18313;48.518;9.124;2023-05-09T02:12:04;13.57;;;5.82;;
31734;SDS011;18313;48.518;9.124;2023-05-09T02:14:31;5.97;;;5.15;;
31734;SDS011;18313;48.518;9.124;2023-05-09T02:16:59;6.18;;;5.53;;
31734;SDS011;18313;48.518;9.124;2023-05-09T02:19:33;7.63;;;5.65;;
31734;SDS011;18313;48.518;9.124;2023-05-09T02:22:01;9.65;;;5.72;;
31734;SDS011;18313;48.518;9.124;2023-05-09T02:24:31;6.85;;;5.93;;
31734;SDS011;18313;48.518;9.124;2023-05-09T02:26:59;7.28;;;6.32;;
31734;SDS011;18313;48.518;9.124;2023-05-09T02:29:30;8.40;;;6.22;;
31734;SDS011;18313;48.518;9.124;2023-05-09T02:32:07;12.10;;;6.95;;
31734;SDS011;18313;48.518;9.124;2023-05-09T02:34:37;8.95;;;7.60;;
31734;SDS011;18313;48.518;9.124;2023-05-09T02:37:05;8.25;;;7.03;;
31734;SDS011;18313;48.518;9.124;2023-05-09T02:39:33;7.03;;;6.30;;
31734;SDS011;18313;48.518;9.124;2023-05-09T02:42:05;12.93;;;7.13;;
31734;SDS011;18313;48.518;9.124;2023-05-09T02:44:33;15.23;;;8.43;;
31734;SDS011;18313;48.518;9.124;2023-05-09T02:47:01;11.40;;;7.90;;
31734;SDS011;18313;48.518;9.124;2023-05-09T02:49:29;8.32;;;7.28;;
31734;SDS011;18313;48.518;9.124;2023-05-09T02:51:58;11.18;;;9.60;;
31734;SDS011;18313;48.518;9.124;2023-05-09T02:54:25;9.30;;;8.35;;
31734;SDS011;18313;48.518;9.124;2023-05-09T02:56:52;10.32;;;9.18;;
31734;SDS011;18313;48.518;9.124;2023-05-09T02:59:19;15.23;;;10.48;;
31734;SDS011;18313;48.518;9.124;2023-05-09T03:01:46;10.07;;;8.65;;
31734;SDS011;18313;48.518;9.124;2023-05-09T03:04:14;10.10;;;8.50;;
31734;SDS011;18313;48.518;9.124;2023-05-09T03:06:41;16.00;;;9.93;;
31734;SDS011;18313;48.518;9.124;2023-05-09T03:09:09;19.48;;;9.65;;
31734;SDS011;18313;48.518;9.124;2023-05-09T03:11:36;10.05;;;8.93;;
31734;SDS011;18313;48.518;9.124;2023-05-09T03:14:03;10.23;;;9.05;;
31734;SDS011;18313;48.518;9.124;2023-05-09T03:16:30;14.98;;;8.82;;
31734;SDS011;18313;48.518;9.124;2023-05-09T03:18:57;22.23;;;8.98;;
31734;SDS011;18313;48.518;9.124;2023-05-09T03:21:24;15.18;;;9.70;;
31734;SDS011;18313;48.518;9.124;2023-05-09T03:23:51;13.60;;;9.45;;
31734;SDS011;18313;48.518;9.124;2023-05-09T03:26:18;10.32;;;8.63;;
31734;SDS011;18313;48.518;9.124;2023-05-09T03:28:46;12.13;;;10.30;;
31734;SDS011;18313;48.518;9.124;2023-05-09T03:31:14;14.35;;;8.88;;
31734;SDS011;18313;48.518;9.124;2023-05-09T03:33:42;15.75;;;9.55;;
31734;SDS011;18313;48.518;9.124;2023-05-09T03:36:08;11.88;;;9.75;;
31734;SDS011;18313;48.518;9.124;2023-05-09T03:38:36;11.88;;;9.48;;
31734;SDS011;18313;48.518;9.124;2023-05-09T03:41:03;13.48;;;9.70;;
31734;SDS011;18313;48.518;9.124;2023-05-09T03:43:30;11.43;;;9.18;;
31734;SDS011;18313;48.518;9.124;2023-05-09T03:45:57;13.68;;;10.38;;
31734;SDS011;18313;48.518;9.124;2023-05-09T03:48:24;12.85;;;10.05;;
31734;SDS011;18313;48.518;9.124;2023-05-09T03:50:51;14.30;;;9.88;;
31734;SDS011;18313;48.518;9.124;2023-05-09T03:53:18;14.18;;;10.18;;
31734;SDS011;18313;48.518;9.124;2023-05-09T03:55:46;14.65;;;10.82;;
31734;SDS011;18313;48.518;9.124;2023-05-09T03:58:13;12.63;;;10.20;;
31734;SDS011;18313;48.518;9.124;2023-05-09T04:00:40;11.77;;;9.25;;
31734;SDS011;18313;48.518;9.124;2023-05-09T04:03:08;10.40;;;8.55;;
31734;SDS011;18313;48.518;9.124;2023-05-09T04:05:35;11.90;;;9.10;;
31734;SDS011;18313;48.518;9.124;2023-05-09T04:08:02;14.30;;;10.18;;
31734;SDS011;18313;48.518;9.124;2023-05-09T04:10:30;11.32;;;9.65;;
31734;SDS011;18313;48.518;9.124;2023-05-09T04:12:58;14.55;;;10.20;;
31734;SDS011;18313;48.518;9.124;2023-05-09T04:15:25;26.80;;;11.70;;
31734;SDS011;18313;48.518;9.124;2023-05-09T04:17:52;24.95;;;11.35;;
31734;SDS011;18313;48.518;9.124;2023-05-09T04:20:19;13.48;;;11.35;;
31734;SDS011;18313;48.518;9.124;2023-05-09T04:22:46;20.67;;;10.85;;
31734;SDS011;18313;48.518;9.124;2023-05-09T04:25:13;26.35;;;11.18;;
31734;SDS011;18313;48.518;9.124;2023-05-09T04:27:42;41.20;;;10.82;;
31734;SDS011;18313;48.518;9.124;2023-05-09T04:30:09;14.93;;;11.73;;
31734;SDS011;18313;48.518;9.124;2023-05-09T04:32:37;26.00;;;10.27;;
31734;SDS011;18313;48.518;9.124;2023-05-09T04:35:04;40.58;;;12.98;;
31734;SDS011;18313;48.518;9.124;2023-05-09T04:37:33;18.75;;;12.00;;
31734;SDS011;18313;48.518;9.124;2023-05-09T04:40:00;16.67;;;12.65;;
31734;SDS011;18313;48.518;9.124;2023-05-09T04:42:28;25.25;;;14.57;;
31734;SDS011;18313;48.518;9.124;2023-05-09T04:44:55;27.65;;;14.80;;
31734;SDS011;18313;48.518;9.124;2023-05-09T04:47:22;18.05;;;13.50;;
31734;SDS011;18313;48.518;9.124;2023-05-09T04:49:49;22.23;;;14.10;;
31734;SDS011;18313;48.518;9.124;2023-05-09T04:52:16;19.55;;;13.07;;
31734;SDS011;18313;48.518;9.124;2023-05-09T04:54:43;33.90;;;13.63;;
31734;SDS011;18313;48.518;9.124;2023-05-09T04:57:10;20.23;;;13.05;;
31734;SDS011;18313;48.518;9.124;2023-05-09T04:59:43;22.73;;;12.57;;
31734;SDS011;18313;48.518;9.124;2023-05-09T05:02:10;35.20;;;14.63;;
31734;SDS011;18313;48.518;9.124;2023-05-09T05:04:38;17.95;;;13.20;;
31734;SDS011;18313;48.518;9.124;2023-05-09T05:07:05;20.15;;;13.90;;
31734;SDS011;18313;48.518;9.124;2023-05-09T05:09:32;17.77;;;12.73;;
31734;SDS011;18313;48.518;9.124;2023-05-09T05:11:59;20.25;;;13.38;;
31734;SDS011;18313;48.518;9.124;2023-05-09T05:14:30;17.50;;;13.07;;
31734;SDS011;18313;48.518;9.124;2023-05-09T05:16:57;18.95;;;13.40;;
31734;SDS011;18313;48.518;9.124;2023-05-09T05:19:24;19.67;;;13.40;;
31734;SDS011;18313;48.518;9.124;2023-05-09T05:21:51;18.42;;;13.82;;
31734;SDS011;18313;48.518;9.124;2023-05-09T05:26:37;17.33;;;12.63;;
31734;SDS011;18313;48.518;9.124;2023-05-09T05:29:04;17.05;;;13.05;;
31734;SDS011;18313;48.518;9.124;2023-05-09T05:31:32;18.20;;;13.63;;
31734;SDS011;18313;48.518;9.124;2023-05-09T05:33:59;19.05;;;12.85;;
31734;SDS011;18313;48.518;9.124;2023-05-09T05:36:26;15.45;;;11.93;;
31734;SDS011;18313;48.518;9.124;2023-05-09T05:38:53;16.42;;;11.85;;
31734;SDS011;18313;48.518;9.124;2023-05-09T05:41:20;16.70;;;12.88;;
31734;SDS011;18313;48.518;9.124;2023-05-09T05:43:47;18.80;;;13.95;;
31734;SDS011;18313;48.518;9.124;2023-05-09T05:46:15;17.77;;;12.88;;
31734;SDS011;18313;48.518;9.124;2023-05-09T05:48:42;20.50;;;14.05;;
31734;SDS011;18313;48.518;9.124;2023-05-09T05:51:09;19.20;;;14.43;;
31734;SDS011;18313;48.518;9.124;2023-05-09T05:53:37;21.35;;;15.50;;
31734;SDS011;18313;48.518;9.124;2023-05-09T05:56:04;21.60;;;14.90;;
31734;SDS011;18313;48.518;9.124;2023-05-09T05:58:31;22.20;;;15.73;;
31734;SDS011;18313;48.518;9.124;2023-05-09T06:00:58;19.70;;;14.82;;
31734;SDS011;18313;48.518;9.124;2023-05-09T06:03:26;24.70;;;16.90;;
31734;SDS011;18313;48.518;9.124;2023-05-09T06:05:53;22.25;;;15.82;;
31734;SDS011;18313;48.518;9.124;2023-05-09T06:08:21;23.33;;;16.00;;
31734;SDS011;18313;48.518;9.124;2023-05-09T06:10:49;21.92;;;15.68;;
31734;SDS011;18313;48.518;9.124;2023-05-09T06:13:16;24.23;;;15.68;;
31734;SDS011;18313;48.518;9.124;2023-05-09T06:15:43;26.00;;;16.98;;
31734;SDS011;18313;48.518;9.124;2023-05-09T06:18:10;22.55;;;16.60;;
31734;SDS011;18313;48.518;9.124;2023-05-09T06:20:37;22.08;;;16.48;;
31734;SDS011;18313;48.518;9.124;2023-05-09T06:23:04;22.77;;;15.35;;
31734;SDS011;18313;48.518;9.124;2023-05-09T06:25:31;22.15;;;16.30;;
31734;SDS011;18313;48.518;9.124;2023-05-09T06:27:58;23.35;;;16.35;;
31734;SDS011;18313;48.518;9.124;2023-05-09T06:30:26;20.48;;;15.07;;
31734;SDS011;18313;48.518;9.124;2023-05-09T06:32:53;23.10;;;15.95;;
31734;SDS011;18313;48.518;9.124;2023-05-09T06:35:21;20.67;;;15.68;;
31734;SDS011;18313;48.518;9.124;2023-05-09T06:37:48;22.73;;;15.57;;
31734;SDS011;18313;48.518;9.124;2023-05-09T06:40:15;19.67;;;14.65;;
31734;SDS011;18313;48.518;9.124;2023-05-09T06:42:43;18.67;;;14.02;;
31734;SDS011;18313;48.518;9.124;2023-05-09T06:45:10;21.35;;;15.07;;
31734;SDS011;18313;48.518;9.124;2023-05-09T06:47:38;22.05;;;14.48;;
31734;SDS011;18313;48.518;9.124;2023-05-09T06:50:05;21.77;;;15.00;;
31734;SDS011;18313;48.518;9.124;2023-05-09T06:52:33;20.00;;;14.35;;
31734;SDS011;18313;48.518;9.124;2023-05-09T06:55:00;19.77;;;14.52;;
31734;SDS011;18313;48.518;9.124;2023-05-09T06:57:27;20.63;;;14.98;;
31734;SDS011;18313;48.518;9.124;2023-05-09T06:59:54;20.23;;;15.27;;
31734;SDS011;18313;48.518;9.124;2023-05-09T07:02:21;20.83;;;15.35;;
31734;SDS011;18313;48.518;9.124;2023-05-09T07:04:49;18.02;;;14.23;;
31734;SDS011;18313;48.518;9.124;2023-05-09T07:07:16;19.98;;;13.98;;
31734;SDS011;18313;48.518;9.124;2023-05-09T07:09:43;20.33;;;14.68;;
31734;SDS011;18313;48.518;9.124;2023-05-09T07:12:10;20.83;;;14.02;;
31734;SDS011;18313;48.518;9.124;2023-05-09T07:14:37;18.90;;;13.82;;
31734;SDS011;18313;48.518;9.124;2023-05-09T07:17:04;18.60;;;14.50;;
31734;SDS011;18313;48.518;9.124;2023-05-09T07:19:47;21.17;;;16.23;;
31734;SDS011;18313;48.518;9.124;2023-05-09T07:22:14;25.25;;;15.60;;
31734;SDS011;18313;48.518;9.124;2023-05-09T07:24:41;24.73;;;18.25;;
31734;SDS011;18313;48.518;9.124;2023-05-09T07:27:12;25.40;;;16.95;;
31734;SDS011;18313;48.518;9.124;2023-05-09T07:29:39;27.00;;;18.42;;
31734;SDS011;18313;48.518;9.124;2023-05-09T07:32:06;23.67;;;17.35;;
31734;SDS011;18313;48.518;9.124;2023-05-09T07:34:34;23.48;;;15.77;;
31734;SDS011;18313;48.518;9.124;2023-05-09T07:37:01;22.92;;;16.77;;
31734;SDS011;18313;48.518;9.124;2023-05-09T07:39:28;20.30;;;14.95;;
31734;SDS011;18313;48.518;9.124;2023-05-09T07:41:55;20.50;;;14.85;;
31734;SDS011;18313;48.518;9.124;2023-05-09T07:44:22;18.98;;;13.95;;
31734;SDS011;18313;48.518;9.124;2023-05-09T07:46:49;17.67;;;13.77;;
31734;SDS011;18313;48.518;9.124;2023-05-09T07:49:16;19.45;;;13.90;;
31734;SDS011;18313;48.518;9.124;2023-05-09T07:51:43;18.85;;;13.93;;
31734;SDS011;18313;48.518;9.124;2023-05-09T07:54:11;19.52;;;15.27;;
31734;SDS011;18313;48.518;9.124;2023-05-09T07:56:38;19.23;;;14.15;;
31734;SDS011;18313;48.518;9.124;2023-05-09T07:59:05;18.35;;;14.02;;
31734;SDS011;18313;48.518;9.124;2023-05-09T08:01:32;21.13;;;15.45;;
31734;SDS011;18313;48.518;9.124;2023-05-09T08:03:59;19.23;;;15.73;;
31734;SDS011;18313;48.518;9.124;2023-05-09T08:06:26;20.25;;;14.10;;
31734;SDS011;18313;48.518;9.124;2023-05-09T08:08:54;19.77;;;14.30;;
31734;SDS011;18313;48.518;9.124;2023-05-09T08:11:21;19.05;;;14.38;;
31734;SDS011;18313;48.518;9.124;2023-05-09T08:13:48;18.75;;;13.60;;
31734;SDS011;18313;48.518;9.124;2023-05-09T08:16:15;20.13;;;14.27;;
31734;SDS011;18313;48.518;9.124;2023-05-09T08:18:43;19.67;;;14.43;;
31734;SDS011;18313;48.518;9.124;2023-05-09T08:21:10;16.05;;;12.43;;
31734;SDS011;18313;48.518;9.124;2023-05-09T08:23:37;16.75;;;12.45;;
31734;SDS011;18313;48.518;9.124;2023-05-09T08:26:06;17.63;;;12.88;;
31734;SDS011;18313;48.518;9.124;2023-05-09T08:28:33;17.63;;;12.52;;
31734;SDS011;18313;48.518;9.124;2023-05-09T08:31:00;15.95;;;12.45;;
31734;SDS011;18313;48.518;9.124;2023-05-09T08:33:27;15.57;;;12.15;;
31734;SDS011;18313;48.518;9.124;2023-05-09T08:35:54;14.45;;;11.70;;
31734;SDS011;18313;48.518;9.124;2023-05-09T08:38:21;14.27;;;10.82;;
31734;SDS011;18313;48.518;9.124;2023-05-09T08:40:49;13.63;;;10.13;;
31734;SDS011;18313;48.518;9.124;2023-05-09T08:43:17;11.93;;;10.20;;
31734;SDS011;18313;48.518;9.124;2023-05-09T08:45:46;13.57;;;10.10;;
31734;SDS011;18313;48.518;9.124;2023-05-09T08:48:17;13.82;;;9.70;;
31734;SDS011;18313;48.518;9.124;2023-05-09T08:50:46;12.18;;;9.02;;
31734;SDS011;18313;48.518;9.124;2023-05-09T08:53:14;12.40;;;9.93;;
31734;SDS011;18313;48.518;9.124;2023-05-09T08:55:41;10.50;;;8.32;;
31734;SDS011;18313;48.518;9.124;2023-05-09T08:58:09;13.55;;;9.70;;
31734;SDS011;18313;48.518;9.124;2023-05-09T09:00:39;12.32;;;9.13;;
31734;SDS011;18313;48.518;9.124;2023-05-09T09:03:07;13.20;;;9.68;;
31734;SDS011;18313;48.518;9.124;2023-05-09T09:05:36;12.02;;;8.85;;
31734;SDS011;18313;48.518;9.124;2023-05-09T09:08:08;11.52;;;8.57;;
31734;SDS011;18313;48.518;9.124;2023-05-09T09:10:38;11.60;;;8.68;;
31734;SDS011;18313;48.518;9.124;2023-05-09T09:13:13;10.90;;;8.63;;
31734;SDS011;18313;48.518;9.124;2023-05-09T09:15:43;11.10;;;6.22;;
31734;SDS011;18313;48.518;9.124;2023-05-09T09:18:15;8.48;;;6.07;;
31734;SDS011;18313;48.518;9.124;2023-05-09T09:23:23;7.78;;;4.93;;
31734;SDS011;18313;48.518;9.124;2023-05-09T09:25:56;6.85;;;4.20;;
31734;SDS011;18313;48.518;9.124;2023-05-09T09:28:25;6.85;;;5.22;;
31734;SDS011;18313;48.518;9.124;2023-05-09T09:30:53;9.02;;;6.07;;
31734;SDS011;18313;48.518;9.124;2023-05-09T09:33:21;6.28;;;5.30;;
31734;SDS011;18313;48.518;9.124;2023-05-09T09:35:50;8.50;;;6.40;;
31734;SDS011;18313;48.518;9.124;2023-05-09T09:38:19;6.95;;;5.65;;
31734;SDS011;18313;48.518;9.124;2023-05-09T09:43:17;8.57;;;6.45;;
31734;SDS011;18313;48.518;9.124;2023-05-09T09:45:47;8.90;;;6.45;;
31734;SDS011;18313;48.518;9.124;2023-05-09T09:48:22;8.05;;;6.10;;
31734;SDS011;18313;48.518;9.124;2023-05-09T09:50:53;9.57;;;6.75;;
31734;SDS011;18313;48.518;9.124;2023-05-09T09:53:22;9.63;;;6.95;;
31734;SDS011;18313;48.518;9.124;2023-05-09T09:55:51;8.02;;;6.47;;
31734;SDS011;18313;48.518;9.124;2023-05-09T09:58:19;9.30;;;7.38;;
31734;SDS011;18313;48.518;9.124;2023-05-09T10:00:47;8.70;;;6.65;;
31734;SDS011;18313;48.518;9.124;2023-05-09T10:03:42;10.70;;;7.13;;
31734;SDS011;18313;48.518;9.124;2023-05-09T10:06:14;8.85;;;6.40;;
31734;SDS011;18313;48.518;9.124;2023-05-09T10:08:43;8.73;;;6.35;;
31734;SDS011;18313;48.518;9.124;2023-05-09T10:11:14;6.93;;;5.50;;
31734;SDS011;18313;48.518;9.124;2023-05-09T10:13:41;7.40;;;5.60;;
31734;SDS011;18313;48.518;9.124;2023-05-09T10:16:10;7.78;;;5.30;;
31734;SDS011;18313;48.518;9.124;2023-05-09T10:18:37;6.00;;;4.43;;
31734;SDS011;18313;48.518;9.124;2023-05-09T10:21:08;6.78;;;4.70;;
31734;SDS011;18313;48.518;9.124;2023-05-09T10:23:39;7.40;;;5.57;;
31734;SDS011;18313;48.518;9.124;2023-05-09T10:26:15;8.38;;;4.75;;
31734;SDS011;18313;48.518;9.124;2023-05-09T10:28:56;7.93;;;4.85;;
31734;SDS011;18313;48.518;9.124;2023-05-09T10:31:27;6.93;;;4.65;;
31734;SDS011;18313;48.518;9.124;2023-05-09T10:33:56;5.82;;;4.35;;
31734;SDS011;18313;48.518;9.124;2023-05-09T10:36:27;4.47;;;3.38;;
31734;SDS011;18313;48.518;9.124;2023-05-09T10:38:54;5.10;;;3.17;;
31734;SDS011;18313;48.518;9.124;2023-05-09T10:41:21;5.13;;;3.30;;
31734;SDS011;18313;48.518;9.124;2023-05-09T10:43:49;6.15;;;4.15;;
31734;SDS011;18313;48.518;9.124;2023-05-09T10:46:17;5.60;;;4.25;;
31734;SDS011;18313;48.518;9.124;2023-05-09T10:48:44;5.63;;;4.40;;
31734;SDS011;18313;48.518;9.124;2023-05-09T10:51:14;4.90;;;3.78;;
31734;SDS011;18313;48.518;9.124;2023-05-09T10:53:43;6.70;;;3.67;;
31734;SDS011;18313;48.518;9.124;2023-05-09T10:56:24;4.78;;;3.30;;
31734;SDS011;18313;48.518;9.124;2023-05-09T10:58:54;5.15;;;3.35;;
31734;SDS011;18313;48.518;9.124;2023-05-09T11:01:28;6.20;;;4.00;;
31734;SDS011;18313;48.518;9.124;2023-05-09T11:04:13;5.45;;;3.67;;
31734;SDS011;18313;48.518;9.124;2023-05-09T11:06:44;6.82;;;3.40;;
31734;SDS011;18313;48.518;9.124;2023-05-09T11:09:21;5.93;;;3.20;;
31734;SDS011;18313;48.518;9.124;2023-05-09T11:11:51;4.72;;;3.05;;
31734;SDS011;18313;48.518;9.124;2023-05-09T11:17:04;4.00;;;2.63;;
31734;SDS011;18313;48.518;9.124;2023-05-09T11:19:37;4.95;;;2.22;;
31734;SDS011;18313;48.518;9.124;2023-05-09T11:22:12;5.47;;;2.35;;
31734;SDS011;18313;48.518;9.124;2023-05-09T11:25:01;3.65;;;2.03;;
31734;SDS011;18313;48.518;9.124;2023-05-09T11:27:38;4.88;;;2.00;;
31734;SDS011;18313;48.518;9.124;2023-05-09T11:30:14;4.00;;;2.22;;
31734;SDS011;18313;48.518;9.124;2023-05-09T11:32:49;10.68;;;3.35;;
31734;SDS011;18313;48.518;9.124;2023-05-09T11:35:22;5.00;;;2.60;;
31734;SDS011;18313;48.518;9.124;2023-05-09T11:40:26;3.13;;;2.13;;
31734;SDS011;18313;48.518;9.124;2023-05-09T11:42:54;3.33;;;2.20;;
31734;SDS011;18313;48.518;9.124;2023-05-09T11:45:25;3.08;;;2.25;;
31734;SDS011;18313;48.518;9.124;2023-05-09T11:47:55;6.28;;;2.03;;
31734;SDS011;18313;48.518;9.124;2023-05-09T11:50:26;2.60;;;1.80;;
31734;SDS011;18313;48.518;9.124;2023-05-09T11:52:54;4.40;;;2.42;;
31734;SDS011;18313;48.518;9.124;2023-05-09T11:55:22;3.50;;;2.00;;
31734;SDS011;18313;48.518;9.124;2023-05-09T11:57:51;2.88;;;1.77;;
31734;SDS011;18313;48.518;9.124;2023-05-09T12:00:20;4.07;;;1.90;;
31734;SDS011;18313;48.518;9.124;2023-05-09T12:02:49;2.92;;;1.90;;
31734;SDS011;18313;48.518;9.124;2023-05-09T12:05:18;2.50;;;1.63;;
31734;SDS011;18313;48.518;9.124;2023-05-09T12:07:47;4.95;;;2.40;;
31734;SDS011;18313;48.518;9.124;2023-05-09T12:10:16;4.00;;;2.15;;
31734;SDS011;18313;48.518;9.124;2023-05-09T12:12:46;2.83;;;1.98;;
31734;SDS011;18313;48.518;9.124;2023-05-09T12:15:18;3.47;;;2.20;;
31734;SDS011;18313;48.518;9.124;2023-05-09T12:17:47;3.65;;;2.33;;
31734;SDS011;18313;48.518;9.124;2023-05-09T12:20:41;2.85;;;2.03;;
31734;SDS011;18313;48.518;9.124;2023-05-09T12:23:18;3.22;;;2.00;;
31734;SDS011;18313;48.518;9.124;2023-05-09T12:25:46;3.13;;;2.03;;
31734;SDS011;18313;48.518;9.124;2023-05-09T12:28:14;6.07;;;2.10;;
31734;SDS011;18313;48.518;9.124;2023-05-09T12:30:42;2.65;;;1.85;;
31734;SDS011;18313;48.518;9.124;2023-05-09T12:33:10;2.40;;;1.70;;
31734;SDS011;18313;48.518;9.124;2023-05-09T12:35:38;3.33;;;1.75;;
31734;SDS011;18313;48.518;9.124;2023-05-09T12:38:05;3.63;;;2.00;;
31734;SDS011;18313;48.518;9.124;2023-05-09T12:40:33;3.15;;;2.00;;
31734;SDS011;18313;48.518;9.124;2023-05-09T12:43:00;2.95;;;2.20;;
31734;SDS011;18313;48.518;9.124;2023-05-09T12:45:30;3.13;;;1.90;;
31734;SDS011;18313;48.518;9.124;2023-05-09T12:47:58;2.90;;;1.83;;
31734;SDS011;18313;48.518;9.124;2023-05-09T12:50:31;7.57;;;2.67;;
31734;SDS011;18313;48.518;9.124;2023-05-09T12:53:01;3.60;;;1.70;;
31734;SDS011;18313;48.518;9.124;2023-05-09T12:55:37;4.28;;;1.98;;
31734;SDS011;18313;48.518;9.124;2023-05-09T12:58:12;2.80;;;1.80;;
31734;SDS011;18313;48.518;9.124;2023-05-09T13:00:43;3.25;;;1.98;;
31734;SDS011;18313;48.518;9.124;2023-05-09T13:03:24;4.50;;;2.13;;
31734;SDS011;18313;48.518;9.124;2023-05-09T13:05:53;3.70;;;2.15;;
31734;SDS011;18313;48.518;9.124;2023-05-09T13:08:25;2.97;;;2.08;;
31734;SDS011;18313;48.518;9.124;2023-05-09T13:10:53;2.88;;;1.83;;
31734;SDS011;18313;48.518;9.124;2023-05-09T13:13:33;2.00;;;1.45;;
31734;SDS011;18313;48.518;9.124;2023-05-09T13:16:02;2.42;;;1.60;;
31734;SDS011;18313;48.518;9.124;2023-05-09T13:18:32;4.05;;;1.80;;
31734;SDS011;18313;48.518;9.124;2023-05-09T13:20:59;5.55;;;2.47;;
31734;SDS011;18313;48.518;9.124;2023-05-09T13:23:26;8.95;;;2.80;;
31734;SDS011;18313;48.518;9.124;2023-05-09T13:25:53;8.85;;;3.20;;
31734;SDS011;18313;48.518;9.124;2023-05-09T13:28:20;6.00;;;2.63;;
31734;SDS011;18313;48.518;9.124;2023-05-09T13:30:47;6.65;;;3.00;;
31734;SDS011;18313;48.518;9.124;2023-05-09T13:33:15;6.90;;;2.97;;
31734;SDS011;18313;48.518;9.124;2023-05-09T13:35:51;3.08;;;2.47;;
31734;SDS011;18313;48.518;9.124;2023-05-09T13:38:19;9.50;;;2.95;;
31734;SDS011;18313;48.518;9.124;2023-05-09T13:40:46;5.40;;;2.83;;
31734;SDS011;18313;48.518;9.124;2023-05-09T13:43:13;3.78;;;2.60;;
31734;SDS011;18313;48.518;9.124;2023-05-09T13:45:41;6.88;;;2.67;;
31734;SDS011;18313;48.518;9.124;2023-05-09T13:48:08;4.20;;;2.30;;
31734;SDS011;18313;48.518;9.124;2023-05-09T13:50:35;3.83;;;2.30;;
31734;SDS011;18313;48.518;9.124;2023-05-09T13:53:02;4.55;;;2.13;;
31734;SDS011;18313;48.518;9.124;2023-05-09T13:55:30;3.50;;;2.25;;
31734;SDS011;18313;48.518;9.124;2023-05-09T13:57:57;2.90;;;2.10;;
31734;SDS011;18313;48.518;9.124;2023-05-09T14:00:24;3.92;;;1.83;;
31734;SDS011;18313;48.518;9.124;2023-05-09T14:02:52;2.72;;;1.92;;
31734;SDS011;18313;48.518;9.124;2023-05-09T14:05:19;3.40;;;2.20;;
31734;SDS011;18313;48.518;9.124;2023-05-09T14:07:46;3.08;;;1.60;;
31734;SDS011;18313;48.518;9.124;2023-05-09T14:10:13;4.50;;;1.80;;
31734;SDS011;18313;48.518;9.124;2023-05-09T14:12:41;2.13;;;1.38;;
31734;SDS011;18313;48.518;9.124;2023-05-09T14:15:12;2.35;;;1.40;;
31734;SDS011;18313;48.518;9.124;2023-05-09T14:17:40;3.42;;;1.60;;
31734;SDS011;18313;48.518;9.124;2023-05-09T14:20:09;2.38;;;1.45;;
31734;SDS011;18313;48.518;9.124;2023-05-09T14:22:36;4.03;;;1.67;;
31734;SDS011;18313;48.518;9.124;2023-05-09T14:25:03;2.40;;;1.55;;
31734;SDS011;18313;48.518;9.124;2023-05-09T14:27:31;7.35;;;1.60;;
31734;SDS011;18313;48.518;9.124;2023-05-09T14:29:59;3.20;;;1.48;;
31734;SDS011;18313;48.518;9.124;2023-05-09T14:32:26;2.78;;;1.65;;
31734;SDS011;18313;48.518;9.124;2023-05-09T14:34:53;2.80;;;1.60;;
31734;SDS011;18313;48.518;9.124;2023-05-09T14:37:21;3.60;;;2.00;;
31734;SDS011;18313;48.518;9.124;2023-05-09T14:39:48;2.25;;;1.40;;
31734;SDS011;18313;48.518;9.124;2023-05-09T14:42:15;4.05;;;1.65;;
31734;SDS011;18313;48.518;9.124;2023-05-09T14:44:42;2.20;;;1.40;;
31734;SDS011;18313;48.518;9.124;2023-05-09T14:47:10;2.20;;;1.40;;
31734;SDS011;18313;48.518;9.124;2023-05-09T14:49:37;2.65;;;1.50;;
31734;SDS011;18313;48.518;9.124;2023-05-09T14:52:05;3.50;;;1.67;;
31734;SDS011;18313;48.518;9.124;2023-05-09T14:54:32;4.18;;;1.50;;
31734;SDS011;18313;48.518;9.124;2023-05-09T14:57:00;2.63;;;1.50;;
31734;SDS011;18313;48.518;9.124;2023-05-09T14:59:30;2.40;;;1.40;;
31734;SDS011;18313;48.518;9.124;2023-05-09T15:01:58;5.85;;;1.95;;
31734;SDS011;18313;48.518;9.124;2023-05-09T15:04:25;2.42;;;1.60;;